Time;durP1;ratioP1;P1;durP2;ratioP2;P2;SDS_P1;SDS_P2;PMS_P1;PMS_P2;Temp;Humidity;BMP_temperature;BMP_pressure;BME280_temperature;BME280_humidity;BME280_pressure;Samples;Min_cycle;Max_cycle;Signal;HPM_P1;HPM_P2
2021/11/29 00:02:06;;;;;;;;;9.00;9.00;;;;;-147.17;100.00;50436.53;5079125;28;51229;-73
2021/11/29 00:04:32;;;;;;;;;9.25;9.25;;;;;-147.17;100.00;50446.38;5061728;28;52027;-72
2021/11/29 00:06:57;;;;;;;;;10.25;9.50;;;;;-147.17;100.00;50468.03;5071794;28;51193;-71
2021/11/29 00:09:22;;;;;;;;;12.00;12.00;;;;;-147.17;100.00;50418.81;5077532;28;51069;-71
2021/11/29 00:11:48;;;;;;;;;10.00;10.00;;;;;-147.17;100.00;50444.41;5078398;28;51135;-73
2021/11/29 00:14:13;;;;;;;;;12.50;12.50;;;;;-147.17;100.00;50414.88;5075374;28;52415;-71
2021/11/29 00:16:39;;;;;;;;;10.25;9.00;;;;;-147.17;100.00;50444.41;5072263;27;51083;-70
2021/11/29 00:19:05;;;;;;;;;10.75;10.00;;;;;-147.17;100.00;50458.19;5071093;28;51086;-72
2021/11/29 00:21:34;;;;;;;;;10.00;10.00;;;;;-147.17;100.00;50454.25;5079785;28;51000;-77
2021/11/29 00:24:01;;;;;;;;;10.75;10.25;;;;;-147.17;100.00;50436.53;5048694;28;51043;-71
2021/11/29 00:26:27;;;;;;;;;10.50;9.25;;;;;-147.17;100.00;50442.44;5070179;28;51002;-74
2021/11/29 00:28:53;;;;;;;;;13.50;11.50;;;;;-147.17;100.00;50426.69;5071475;27;51102;-73
2021/11/29 00:31:18;;;;;;;;;12.00;11.00;;;;;-147.17;100.00;50442.44;5058895;28;51117;-70
2021/11/29 00:33:44;;;;;;;;;9.75;9.75;;;;;-147.17;100.00;50475.91;5072615;27;51135;-72
2021/11/29 00:36:10;;;;;;;;;11.00;10.50;;;;;-147.17;100.00;50436.53;5076571;28;51268;-70
2021/11/29 00:38:36;;;;;;;;;10.50;10.00;;;;;-147.17;100.00;50448.34;5074627;27;51063;-69
2021/11/29 00:41:02;;;;;;;;;8.75;7.00;;;;;-147.17;100.00;50454.25;5079244;28;51058;-70
2021/11/29 00:43:27;;;;;;;;;12.00;11.00;;;;;-147.17;100.00;50434.56;5079177;28;50944;-70
2021/11/29 00:45:53;;;;;;;;;13.25;9.50;;;;;-147.17;100.00;50420.78;5055087;28;51071;-71
2021/11/29 00:48:18;;;;;;;;;10.00;10.00;;;;;-147.17;100.00;50442.44;5078291;28;51063;-72
2021/11/29 00:50:44;;;;;;;;;13.75;10.50;;;;;-147.17;100.00;50454.25;5078829;28;51084;-69
2021/11/29 00:53:11;;;;;;;;;12.75;9.75;;;;;-147.17;100.00;50442.44;5076228;28;51847;-70
2021/11/29 00:55:38;;;;;;;;;13.25;13.25;;;;;-147.17;100.00;50442.44;5072391;28;50812;-69
2021/11/29 00:58:04;;;;;;;;;12.25;11.50;;;;;-147.17;100.00;50432.59;5078515;28;50964;-71
2021/11/29 01:00:30;;;;;;;;;14.00;12.75;;;;;-147.17;100.00;50436.53;5059965;28;51140;-69
2021/11/29 01:02:56;;;;;;;;;11.00;9.25;;;;;-147.17;100.00;50452.28;5080168;27;52560;-70
2021/11/29 01:05:22;;;;;;;;;12.75;12.75;;;;;-147.17;100.00;50422.75;5080914;28;51062;-71
2021/11/29 01:07:48;;;;;;;;;10.50;10.00;;;;;-147.17;100.00;50428.66;5079201;28;50974;-71
2021/11/29 01:10:15;;;;;;;;;10.25;9.50;;;;;-147.17;100.00;50458.19;5080269;28;51103;-72
2021/11/29 01:12:41;;;;;;;;;12.50;10.50;;;;;-147.17;100.00;50442.44;5080386;28;51889;-74
2021/11/29 01:15:09;;;;;;;;;14.00;13.00;;;;;-147.17;100.00;50438.50;5076706;28;51185;-70
2021/11/29 01:17:35;;;;;;;;;11.00;10.00;;;;;-147.17;100.00;50395.19;5074486;28;51032;-70
2021/11/29 01:20:02;;;;;;;;;12.00;11.00;;;;;-147.17;100.00;50428.66;5057252;28;50980;-70
2021/11/29 01:22:27;;;;;;;;;11.00;10.50;;;;;-147.17;100.00;50424.72;5076856;28;51441;-70
2021/11/29 01:24:53;;;;;;;;;10.00;9.25;;;;;-147.17;100.00;50442.44;5060436;28;50853;-73
2021/11/29 01:27:18;;;;;;;;;11.00;10.50;;;;;-147.17;100.00;50422.75;5079101;27;51107;-71
2021/11/29 01:29:43;;;;;;;;;9.00;9.00;;;;;-147.17;100.00;50450.31;5050587;28;50919;-70
2021/11/29 01:32:09;;;;;;;;;11.00;10.00;;;;;-147.17;100.00;50420.78;5078850;28;50876;-69
2021/11/29 01:34:34;;;;;;;;;10.50;10.50;;;;;-147.17;100.00;50432.59;5078969;28;50970;-72
2021/11/29 01:37:00;;;;;;;;;13.00;10.00;;;;;-147.17;100.00;50426.69;5079283;28;51149;-69
2021/11/29 01:39:25;;;;;;;;;9.25;9.25;;;;;-147.17;100.00;50462.13;5078655;28;51339;-69
2021/11/29 01:41:51;;;;;;;;;11.50;10.50;;;;;-147.17;100.00;50426.69;5070701;28;52195;-75
2021/11/29 01:44:17;;;;;;;;;10.25;9.75;;;;;-147.17;100.00;50452.28;5073983;28;51207;-75
2021/11/29 01:46:44;;;;;;;;;11.00;10.75;;;;;-147.17;100.00;50434.56;5078645;28;51107;-73
2021/11/29 01:49:09;;;;;;;;;14.00;13.50;;;;;-147.17;100.00;50448.34;5059233;28;51249;-74
2021/11/29 01:51:35;;;;;;;;;12.50;10.75;;;;;-147.17;100.00;50438.50;5058603;28;51727;-77
2021/11/29 01:54:00;;;;;;;;;13.00;13.00;;;;;-147.17;100.00;50470.00;5077550;27;50622;-71
2021/11/29 01:56:26;;;;;;;;;13.00;12.00;;;;;-147.17;100.00;50414.88;5071762;28;51056;-73
2021/11/29 01:58:51;;;;;;;;;10.50;10.50;;;;;-147.17;100.00;50440.47;5078225;28;50960;-70
2021/11/29 02:01:20;;;;;;;;;7.50;6.00;;;;;-147.17;100.00;50399.13;5075507;28;52532;-73
2021/11/29 02:03:51;;;;;;;;;14.75;13.50;;;;;-147.17;100.00;50428.66;5060425;28;51011;-71
2021/11/29 02:06:17;;;;;;;;;11.00;10.00;;;;;-147.17;100.00;50426.69;5079932;28;50996;-71
2021/11/29 02:08:42;;;;;;;;;11.25;10.25;;;;;-147.17;100.00;50407.00;5078114;28;50889;-69
2021/11/29 02:11:08;;;;;;;;;11.25;9.00;;;;;-147.17;100.00;50424.72;5076878;28;52029;-69
2021/11/29 02:13:33;;;;;;;;;13.00;11.75;;;;;-147.17;100.00;50432.59;5071204;28;50878;-72
2021/11/29 02:15:59;;;;;;;;;12.25;9.00;;;;;-147.17;100.00;50416.84;5076323;28;51091;-70
2021/11/29 02:18:28;;;;;;;;;10.00;10.00;;;;;-147.17;100.00;50446.38;5078907;28;51296;-70
2021/11/29 02:21:05;;;;;;;;;12.75;11.25;;;;;-147.17;100.00;50458.19;5047863;28;52061;-71
2021/11/29 02:23:33;;;;;;;;;9.50;8.50;;;;;-147.17;100.00;50442.44;5078078;28;50981;-69
2021/11/29 02:25:58;;;;;;;;;9.00;9.00;;;;;-147.17;100.00;50432.59;5073925;28;51281;-70
2021/11/29 02:28:24;;;;;;;;;11.25;10.25;;;;;-147.17;100.00;50408.97;5075563;27;50951;-69
2021/11/29 02:30:50;;;;;;;;;10.50;9.00;;;;;-147.17;100.00;50438.50;5074263;28;51306;-71
2021/11/29 02:33:16;;;;;;;;;11.50;9.75;;;;;-147.17;100.00;50428.66;5076217;28;50577;-71
2021/11/29 02:35:41;;;;;;;;;11.25;11.25;;;;;-147.17;100.00;50422.75;5072782;28;50918;-74
2021/11/29 02:38:07;;;;;;;;;10.25;10.00;;;;;-147.17;100.00;50387.31;5079032;27;50980;-70
2021/11/29 02:40:33;;;;;;;;;10.75;8.50;;;;;-147.17;100.00;50446.38;5062245;28;52882;-75
2021/11/29 02:42:58;;;;;;;;;8.50;8.50;;;;;-147.17;100.00;50387.31;5057498;28;51122;-71
2021/11/29 02:45:25;;;;;;;;;7.25;6.25;;;;;-147.17;100.00;50416.84;5076332;28;51207;-73
2021/11/29 02:47:51;;;;;;;;;8.75;8.00;;;;;-147.17;100.00;50434.56;5082493;28;51295;-77
2021/11/29 02:50:16;;;;;;;;;9.25;7.25;;;;;-147.17;100.00;50422.75;5077686;28;51804;-70
2021/11/29 02:52:43;;;;;;;;;9.00;9.00;;;;;-147.17;100.00;50430.63;5074810;28;51025;-73
2021/11/29 02:55:08;;;;;;;;;9.00;7.50;;;;;-147.17;100.00;50414.88;5079727;28;51137;-67
2021/11/29 02:57:34;;;;;;;;;8.75;8.75;;;;;-147.17;100.00;50440.47;5064120;28;51304;-73
2021/11/29 02:59:59;;;;;;;;;12.75;10.00;;;;;-147.17;100.00;50407.00;5066252;28;51019;-72
2021/11/29 03:02:26;;;;;;;;;7.00;7.00;;;;;-147.17;100.00;50418.81;5081987;28;50937;-75
2021/11/29 03:04:52;;;;;;;;;10.50;8.00;;;;;-147.17;100.00;50428.66;5076109;28;51222;-68
2021/11/29 03:07:18;;;;;;;;;7.00;5.25;;;;;-147.17;100.00;50442.44;5066392;28;50914;-65
2021/11/29 03:09:46;;;;;;;;;9.75;9.50;;;;;-147.17;100.00;50438.50;5079824;28;51655;-66
2021/11/29 03:12:11;;;;;;;;;9.25;9.25;;;;;-147.17;100.00;50414.88;5059832;28;51070;-67
2021/11/29 03:14:37;;;;;;;;;9.75;7.25;;;;;-147.17;100.00;50462.13;5059410;28;51132;-64
2021/11/29 03:17:03;;;;;;;;;7.00;6.25;;;;;-147.17;100.00;50456.22;5064661;28;50857;-69
2021/11/29 03:19:34;;;;;;;;;7.25;7.25;;;;;-147.17;100.00;50422.75;5058054;28;51576;-66
2021/11/29 03:22:01;;;;;;;;;10.75;9.75;;;;;-147.17;100.00;50416.84;5073722;28;51024;-67
2021/11/29 03:24:27;;;;;;;;;11.75;10.50;;;;;-147.17;100.00;50418.81;5078001;28;51092;-68
2021/11/29 03:26:52;;;;;;;;;8.50;6.00;;;;;-147.17;100.00;50458.19;5082546;27;51122;-69
2021/11/29 03:29:19;;;;;;;;;8.50;7.25;;;;;-147.17;100.00;50422.75;5061554;28;50988;-68
2021/11/29 03:31:45;;;;;;;;;4.50;4.50;;;;;-147.17;100.00;50426.69;5062113;28;51010;-69
2021/11/29 03:34:14;;;;;;;;;9.00;9.00;;;;;-147.17;100.00;50416.84;5068387;27;51206;-67
2021/11/29 03:36:43;;;;;;;;;9.00;9.00;;;;;-147.17;100.00;50424.72;5059246;28;51283;-68
2021/11/29 03:39:12;;;;;;;;;9.25;9.25;;;;;-147.17;100.00;50444.41;5077516;28;52025;-68
2021/11/29 03:41:38;;;;;;;;;9.50;7.00;;;;;-147.17;100.00;50458.19;5080580;28;51193;-69
2021/11/29 03:44:05;;;;;;;;;10.25;10.25;;;;;-147.17;100.00;50432.59;5078788;28;51174;-69
2021/11/29 03:46:31;;;;;;;;;9.00;8.50;;;;;-147.17;100.00;50444.41;5088060;27;51328;-67
2021/11/29 03:48:57;;;;;;;;;10.00;9.00;;;;;-147.17;100.00;50416.84;5068820;27;52932;-68
2021/11/29 03:51:22;;;;;;;;;10.00;7.25;;;;;-147.17;100.00;50444.41;5071797;28;50852;-71
2021/11/29 03:53:48;;;;;;;;;8.75;6.75;;;;;-147.17;100.00;50426.69;5081547;28;52512;-70
2021/11/29 03:56:13;;;;;;;;;5.00;5.00;;;;;-147.17;100.00;50426.69;5087433;27;50916;-72
2021/11/29 03:58:39;;;;;;;;;5.25;4.75;;;;;-147.17;100.00;50446.38;5077682;28;51027;-72
2021/11/29 04:01:04;;;;;;;;;5.00;5.00;;;;;-147.17;100.00;50438.50;5082636;28;51065;-71
2021/11/29 04:03:32;;;;;;;;;5.50;5.00;;;;;-147.17;100.00;50414.88;5078653;28;51136;-72
2021/11/29 04:05:58;;;;;;;;;6.00;5.25;;;;;-147.17;100.00;50420.78;5080418;28;51116;-68
2021/11/29 04:08:24;;;;;;;;;6.75;6.00;;;;;-147.17;100.00;50442.44;5070066;28;51674;-69
2021/11/29 04:10:50;;;;;;;;;7.25;6.25;;;;;-147.17;100.00;50444.41;5054224;28;51017;-69
2021/11/29 04:13:15;;;;;;;;;6.50;6.50;;;;;-147.17;100.00;50408.97;5073375;28;51029;-70
2021/11/29 04:15:41;;;;;;;;;6.00;6.00;;;;;-147.17;100.00;50430.63;5072270;28;51388;-69
2021/11/29 04:18:06;;;;;;;;;7.25;6.25;;;;;-147.17;100.00;50407.00;5074859;28;51904;-69
2021/11/29 04:20:32;;;;;;;;;8.50;7.50;;;;;-147.17;100.00;50405.03;5071970;27;51024;-70
2021/11/29 04:22:57;;;;;;;;;7.00;6.00;;;;;-147.17;100.00;50405.03;5069321;28;51318;-69
2021/11/29 04:25:24;;;;;;;;;7.25;6.00;;;;;-147.17;100.00;50395.19;5072288;27;50784;-69
2021/11/29 04:27:52;;;;;;;;;5.25;5.00;;;;;-147.17;100.00;50434.56;5074559;27;51845;-69
2021/11/29 04:30:22;;;;;;;;;6.00;6.00;;;;;-147.17;100.00;50454.25;5074361;28;51086;-69
2021/11/29 04:32:52;;;;;;;;;6.00;6.00;;;;;-147.17;100.00;50414.88;5066170;27;50967;-71
2021/11/29 04:35:18;;;;;;;;;6.25;5.75;;;;;-147.17;100.00;50401.09;5055802;28;51288;-69
2021/11/29 04:37:44;;;;;;;;;3.50;3.25;;;;;-147.17;100.00;50428.66;5060637;28;51979;-69
2021/11/29 04:40:11;;;;;;;;;5.75;5.75;;;;;-147.17;100.00;50426.69;5054551;28;51137;-69
2021/11/29 04:42:36;;;;;;;;;5.00;5.00;;;;;-147.17;100.00;50393.22;5060460;27;51104;-69
2021/11/29 04:45:03;;;;;;;;;8.75;6.00;;;;;-147.17;100.00;50422.75;5069549;28;51166;-70
2021/11/29 04:47:29;;;;;;;;;7.25;6.00;;;;;-147.17;100.00;50422.75;5060246;28;53083;-70
2021/11/29 04:49:54;;;;;;;;;5.75;5.75;;;;;-147.17;100.00;50407.00;5072858;28;51029;-70
2021/11/29 04:52:19;;;;;;;;;6.00;6.00;;;;;-147.17;100.00;50412.91;5065038;28;51196;-70
2021/11/29 04:54:45;;;;;;;;;5.00;5.00;;;;;-147.17;100.00;50426.69;5069507;28;51089;-70
2021/11/29 04:57:11;;;;;;;;;5.00;4.75;;;;;-147.17;100.00;50428.66;5044763;28;51994;-69
2021/11/29 04:59:36;;;;;;;;;6.25;5.00;;;;;-147.17;100.00;50414.88;5051799;28;51066;-69
2021/11/29 05:02:02;;;;;;;;;5.00;4.00;;;;;-147.17;100.00;50381.41;5072115;28;51190;-69
2021/11/29 05:04:30;;;;;;;;;6.00;5.00;;;;;-147.17;100.00;50428.66;5037485;28;51328;-70
2021/11/29 05:06:56;;;;;;;;;5.00;5.00;;;;;-147.17;100.00;50436.53;5072393;28;52107;-69
2021/11/29 05:09:21;;;;;;;;;6.00;6.00;;;;;-147.17;100.00;50418.81;5071268;28;51076;-70
2021/11/29 05:11:47;;;;;;;;;6.75;5.75;;;;;-147.17;100.00;50420.78;5072029;28;50972;-69
2021/11/29 05:14:13;;;;;;;;;6.00;5.00;;;;;-147.17;100.00;50428.66;5066229;28;51213;-70
2021/11/29 05:16:40;;;;;;;;;5.00;5.00;;;;;-147.17;100.00;50416.84;5042082;28;52431;-69
2021/11/29 05:19:06;;;;;;;;;5.00;5.00;;;;;-147.17;100.00;50399.13;5064946;28;51068;-69
2021/11/29 05:21:33;;;;;;;;;5.25;5.00;;;;;-147.17;100.00;50405.03;5065898;28;51061;-70
2021/11/29 05:23:58;;;;;;;;;5.00;5.00;;;;;-147.17;100.00;50414.88;5068998;28;51225;-69
2021/11/29 05:26:25;;;;;;;;;5.50;5.50;;;;;-147.17;100.00;50391.25;5058386;28;52709;-69
2021/11/29 05:28:56;;;;;;;;;2.25;2.25;;;;;-147.17;100.00;50401.09;5077166;27;51143;-69
2021/11/29 05:31:22;;;;;;;;;6.00;6.00;;;;;-147.17;100.00;50401.09;5052406;28;51142;-68
2021/11/29 05:33:47;;;;;;;;;5.00;5.00;;;;;-147.17;100.00;50424.72;5052889;28;50983;-69
2021/11/29 05:36:13;;;;;;;;;7.50;5.25;;;;;-147.17;100.00;50403.06;5041261;28;52582;-69
2021/11/29 05:38:39;;;;;;;;;5.00;5.00;;;;;-147.17;100.00;50395.19;5061489;28;51091;-69
2021/11/29 05:41:05;;;;;;;;;9.00;9.00;;;;;-147.17;100.00;50405.03;5054496;28;50989;-68
2021/11/29 05:43:31;;;;;;;;;5.00;4.50;;;;;-147.17;100.00;50426.69;5055830;28;51263;-69
2021/11/29 05:45:57;;;;;;;;;7.00;6.00;;;;;-147.17;100.00;50412.91;5059985;28;52057;-70
2021/11/29 05:48:24;;;;;;;;;6.00;5.00;;;;;-147.17;100.00;50448.34;5058615;28;51194;-70
2021/11/29 05:50:50;;;;;;;;;5.00;5.00;;;;;-147.17;100.00;50428.66;5035222;28;51004;-69
2021/11/29 05:53:15;;;;;;;;;6.00;5.00;;;;;-147.17;100.00;50383.38;5063311;28;51318;-69
2021/11/29 05:55:40;;;;;;;;;2.75;2.75;;;;;-147.17;100.00;50410.94;5066858;28;51387;-70
2021/11/29 05:58:06;;;;;;;;;6.00;5.50;;;;;-147.17;100.00;50430.63;5064049;28;51141;-69
2021/11/29 06:00:32;;;;;;;;;4.00;4.00;;;;;-147.17;100.00;50399.13;5064221;28;51477;-69
2021/11/29 06:02:59;;;;;;;;;5.50;5.00;;;;;-147.17;100.00;50412.91;5063958;28;51157;-70
2021/11/29 06:05:25;;;;;;;;;6.25;6.25;;;;;-147.17;100.00;50403.06;5061031;28;52119;-69
2021/11/29 06:07:51;;;;;;;;;4.75;4.75;;;;;-147.17;100.00;50438.50;5055447;28;51138;-69
2021/11/29 06:10:16;;;;;;;;;5.00;3.25;;;;;-147.17;100.00;50399.13;5055674;28;51250;-70
2021/11/29 06:12:43;;;;;;;;;5.25;5.25;;;;;-147.17;100.00;50434.56;5078421;27;51210;-71
2021/11/29 06:15:10;;;;;;;;;6.00;5.50;;;;;-147.17;100.00;50414.88;5049596;28;53115;-70
2021/11/29 06:17:35;;;;;;;;;5.25;4.25;;;;;-147.17;100.00;50426.69;5043078;28;51166;-70
2021/11/29 06:20:02;;;;;;;;;2.00;2.00;;;;;-147.17;100.00;50422.75;5067862;28;51183;-70
2021/11/29 06:22:27;;;;;;;;;6.50;6.00;;;;;-147.17;100.00;50408.97;5060345;28;50946;-69
2021/11/29 06:24:53;;;;;;;;;6.25;5.75;;;;;-147.17;100.00;50407.00;5073933;28;51216;-69
2021/11/29 06:27:19;;;;;;;;;4.00;4.00;;;;;-147.17;100.00;50414.88;5073165;27;51225;-68
2021/11/29 06:29:44;;;;;;;;;4.00;3.50;;;;;-147.17;100.00;50403.06;5075674;28;51027;-68
2021/11/29 06:32:10;;;;;;;;;1.25;1.00;;;;;-147.17;100.00;50405.03;5075775;28;51203;-69
2021/11/29 06:34:35;;;;;;;;;3.50;3.50;;;;;-147.17;100.00;50438.50;5075566;28;51119;-68
2021/11/29 06:37:02;;;;;;;;;3.25;3.25;;;;;-147.17;100.00;50414.88;5070362;28;51121;-68
2021/11/29 06:39:29;;;;;;;;;5.00;3.00;;;;;-147.17;100.00;50418.81;5061642;28;51076;-69
2021/11/29 06:41:54;;;;;;;;;5.75;5.75;;;;;-147.17;100.00;50438.50;5055254;28;51569;-69
2021/11/29 06:44:21;;;;;;;;;5.00;5.00;;;;;-147.17;100.00;50414.88;5054744;28;50997;-70
2021/11/29 06:46:47;;;;;;;;;5.75;5.00;;;;;-147.17;100.00;50414.88;5055105;28;51064;-69
2021/11/29 06:49:12;;;;;;;;;5.50;5.00;;;;;-147.17;100.00;50418.81;5071183;28;51157;-69
2021/11/29 06:51:37;;;;;;;;;7.00;7.00;;;;;-147.17;100.00;50444.41;5075518;28;51311;-70
2021/11/29 06:54:03;;;;;;;;;6.00;5.50;;;;;-147.17;100.00;50426.69;5074949;28;52000;-69
2021/11/29 06:56:28;;;;;;;;;3.50;3.50;;;;;-147.17;100.00;50410.94;5073238;28;51265;-69
2021/11/29 06:58:54;;;;;;;;;6.00;4.00;;;;;-147.17;100.00;50407.00;5074249;27;51083;-70
2021/11/29 07:01:20;;;;;;;;;6.75;6.00;;;;;-147.17;100.00;50422.75;5053288;28;51405;-69
2021/11/29 07:03:45;;;;;;;;;12.75;10.50;;;;;-147.17;100.00;50446.38;5061775;28;51831;-71
2021/11/29 07:06:11;;;;;;;;;2.25;2.25;;;;;-147.17;100.00;50407.00;5072008;28;51123;-70
2021/11/29 07:08:37;;;;;;;;;4.50;4.50;;;;;-147.17;100.00;50438.50;5062241;28;51218;-69
2021/11/29 07:11:02;;;;;;;;;5.25;4.00;;;;;-147.17;100.00;50391.25;5058368;28;51329;-70
2021/11/29 07:13:28;;;;;;;;;7.00;5.75;;;;;-147.17;100.00;50436.53;5054452;28;51572;-70
2021/11/29 07:15:53;;;;;;;;;4.50;4.00;;;;;-147.17;100.00;50430.63;5053594;28;51362;-70
2021/11/29 07:18:19;;;;;;;;;4.50;3.00;;;;;-147.17;100.00;50422.75;5057084;28;51126;-69
2021/11/29 07:20:45;;;;;;;;;5.75;5.75;;;;;-147.17;100.00;50422.75;5068912;27;51115;-68
2021/11/29 07:23:10;;;;;;;;;6.00;6.00;;;;;-147.17;100.00;50407.00;5053550;28;53290;-68
2021/11/29 07:25:35;;;;;;;;;6.00;6.00;;;;;-147.17;100.00;50422.75;5055343;28;50857;-69
2021/11/29 07:28:01;;;;;;;;;5.25;5.25;;;;;-147.17;100.00;50446.38;5069081;27;51788;-73
2021/11/29 07:30:28;;;;;;;;;6.25;5.25;;;;;-147.17;100.00;50442.44;5068897;28;51155;-74
2021/11/29 07:32:54;;;;;;;;;9.25;6.00;;;;;-147.17;100.00;50424.72;5061642;28;53701;-74
2021/11/29 07:35:22;;;;;;;;;6.25;6.25;;;;;-147.17;100.00;50428.66;5064796;28;51180;-73
2021/11/29 07:37:48;;;;;;;;;6.00;6.00;;;;;-147.17;100.00;50414.88;5074184;28;51012;-72
2021/11/29 07:40:14;;;;;;;;;5.75;5.75;;;;;-147.17;100.00;50410.94;5071432;27;51298;-74
2021/11/29 07:42:39;;;;;;;;;8.50;7.25;;;;;-147.17;100.00;50399.13;5035502;28;53299;-75
2021/11/29 07:45:11;;;;;;;;;10.00;10.00;;;;;-147.17;100.00;50414.88;5052527;28;51220;-74
2021/11/29 07:47:41;;;;;;;;;2.50;2.50;;;;;-147.17;100.00;50420.78;5044328;28;51085;-66
2021/11/29 07:50:11;;;;;;;;;5.25;5.25;;;;;-147.17;100.00;50401.09;5070292;27;51155;-67
2021/11/29 07:52:37;;;;;;;;;6.25;6.00;;;;;-147.17;100.00;50407.00;5071403;28;52047;-66
2021/11/29 07:55:07;;;;;;;;;6.00;5.25;;;;;-147.17;100.00;50379.44;5059955;28;50969;-67
2021/11/29 07:57:34;;;;;;;;;7.25;7.25;;;;;-147.17;100.00;50420.78;5064951;28;51134;-67
2021/11/29 08:00:03;;;;;;;;;10.25;9.00;;;;;-147.17;100.00;50383.38;5073530;27;51390;-69
2021/11/29 08:02:29;;;;;;;;;9.25;9.00;;;;;-147.17;100.00;50405.03;5061349;28;51129;-69
2021/11/29 08:04:54;;;;;;;;;6.50;6.25;;;;;-147.17;100.00;50395.19;5062036;28;50924;-67
2021/11/29 08:07:20;;;;;;;;;6.00;6.00;;;;;-147.17;100.00;50450.31;5061842;28;51072;-67
2021/11/29 08:09:47;;;;;;;;;14.50;14.00;;;;;-147.17;100.00;50377.47;5060850;27;51137;-67
2021/11/29 08:12:12;;;;;;;;;9.00;8.50;;;;;-147.17;100.00;50391.25;5068496;27;51182;-67
2021/11/29 08:14:38;;;;;;;;;9.50;8.25;;;;;-147.17;100.00;50438.50;5070825;27;51307;-69
2021/11/29 08:17:03;;;;;;;;;7.75;7.25;;;;;-147.17;100.00;50414.88;5067511;28;51203;-66
2021/11/29 08:19:29;;;;;;;;;6.75;6.25;;;;;-147.17;100.00;50426.69;5071868;28;51186;-67
2021/11/29 08:21:54;;;;;;;;;9.00;8.50;;;;;-147.17;100.00;50405.03;5064379;28;51489;-71
2021/11/29 08:24:19;;;;;;;;;17.50;14.50;;;;;-147.17;100.00;50420.78;5062378;28;51167;-68
2021/11/29 08:26:45;;;;;;;;;6.25;6.25;;;;;-147.17;100.00;50428.66;5073321;28;51440;-68
2021/11/29 08:29:10;;;;;;;;;8.50;7.50;;;;;-147.17;100.00;50399.13;5066159;27;51318;-67
2021/11/29 08:31:36;;;;;;;;;7.00;6.00;;;;;-147.17;100.00;50436.53;5073281;28;51700;-69
2021/11/29 08:34:01;;;;;;;;;6.00;6.00;;;;;-147.17;100.00;50444.41;5053920;28;51225;-76
2021/11/29 08:36:26;;;;;;;;;9.50;9.25;;;;;-147.17;100.00;50422.75;5072337;28;51051;-73
2021/11/29 08:38:52;;;;;;;;;9.50;7.00;;;;;-147.17;100.00;50418.81;5072568;28;51423;-69
2021/11/29 08:41:18;;;;;;;;;9.25;8.50;;;;;-147.17;100.00;50403.06;5072473;28;51785;-68
2021/11/29 08:43:44;;;;;;;;;10.50;9.50;;;;;-147.17;100.00;50426.69;5073880;28;50903;-69
2021/11/29 08:46:09;;;;;;;;;10.50;9.50;;;;;-147.17;100.00;50444.41;5062040;28;51236;-69
2021/11/29 08:48:34;;;;;;;;;9.00;9.00;;;;;-147.17;100.00;50414.88;5072219;28;50895;-69
2021/11/29 08:51:00;;;;;;;;;9.25;9.25;;;;;-147.17;100.00;50458.19;5071783;28;52308;-73
2021/11/29 08:53:27;;;;;;;;;7.00;6.00;;;;;-147.17;100.00;50466.06;5072168;28;50958;-74
2021/11/29 08:55:54;;;;;;;;;10.25;9.75;;;;;-147.17;100.00;50440.47;5053870;28;51261;-74
2021/11/29 08:58:20;;;;;;;;;8.50;7.00;;;;;-147.17;100.00;50436.53;5062012;28;51258;-74
2021/11/29 09:00:49;;;;;;;;;7.50;7.50;;;;;-147.17;100.00;50403.06;5057981;27;51777;-75
2021/11/29 09:03:14;;;;;;;;;6.25;6.25;;;;;-147.17;100.00;50420.78;5053660;28;50875;-73
2021/11/29 09:05:43;;;;;;;;;6.00;6.00;;;;;-147.17;100.00;50403.06;5052997;28;51325;-75
2021/11/29 09:08:12;;;;;;;;;10.25;10.25;;;;;-147.17;100.00;50466.06;5053419;28;51081;-74
2021/11/29 09:10:38;;;;;;;;;10.00;9.25;;;;;-147.17;100.00;50418.81;5061869;28;51900;-74
2021/11/29 09:13:03;;;;;;;;;10.00;7.00;;;;;-147.17;100.00;50438.50;5062718;28;50859;-73
2021/11/29 09:15:28;;;;;;;;;10.00;9.50;;;;;-147.17;100.00;50424.72;5053048;28;51192;-75
2021/11/29 09:17:54;;;;;;;;;10.25;9.75;;;;;-147.17;100.00;50430.63;5036164;28;51027;-74
2021/11/29 09:20:23;;;;;;;;;7.00;7.00;;;;;-147.17;100.00;50416.84;5056704;28;51722;-74
2021/11/29 09:22:50;;;;;;;;;9.75;9.50;;;;;-147.17;100.00;50446.38;5035157;28;51154;-74
2021/11/29 09:25:16;;;;;;;;;12.50;12.50;;;;;-147.17;100.00;50418.81;5052446;28;51265;-73
2021/11/29 09:27:43;;;;;;;;;9.25;9.25;;;;;-147.17;100.00;50418.81;5061277;27;51235;-76
2021/11/29 09:30:11;;;;;;;;;11.75;8.00;;;;;-147.17;100.00;50430.63;5068531;28;51880;-76
2021/11/29 09:32:38;;;;;;;;;9.50;9.00;;;;;-147.17;100.00;50430.63;5067928;28;51178;-75
2021/11/29 09:35:10;;;;;;;;;11.00;10.25;;;;;-147.17;100.00;50420.78;5048741;28;51074;-75
2021/11/29 09:37:37;;;;;;;;;9.00;9.00;;;;;-147.17;100.00;50401.09;5051025;28;50992;-75
2021/11/29 09:40:05;;;;;;;;;9.00;9.00;;;;;-147.17;100.00;50403.06;5055023;28;52717;-75
2021/11/29 09:42:31;;;;;;;;;11.00;10.75;;;;;-147.17;100.00;50432.59;5052607;28;50978;-76
2021/11/29 09:44:56;;;;;;;;;10.00;10.00;;;;;-147.17;100.00;50446.38;5056288;28;51564;-75
2021/11/29 09:47:24;;;;;;;;;9.25;9.00;;;;;-147.17;100.00;50426.69;5058236;28;51476;-75
2021/11/29 09:49:54;;;;;;;;;9.50;9.50;;;;;-147.17;100.00;50422.75;5053229;28;52761;-74
2021/11/29 09:52:20;;;;;;;;;14.50;13.50;;;;;-147.17;100.00;50399.13;5062274;28;51236;-75
2021/11/29 09:54:46;;;;;;;;;19.25;19.00;;;;;-147.17;100.00;50454.25;5055988;28;51224;-76
2021/11/29 09:57:11;;;;;;;;;18.75;15.50;;;;;-147.17;100.00;50430.63;5069651;28;51264;-76
2021/11/29 09:59:36;;;;;;;;;9.75;8.75;;;;;-147.17;100.00;50442.44;5062780;28;51823;-74
2021/11/29 10:02:07;;;;;;;;;12.00;11.00;;;;;-147.17;100.00;50456.22;5060094;28;51170;-75
2021/11/29 10:04:32;;;;;;;;;14.00;11.75;;;;;-147.17;100.00;50430.63;5055236;28;51064;-76
2021/11/29 10:07:01;;;;;;;;;16.50;13.50;;;;;-147.17;100.00;50424.72;5068061;28;52337;-75
2021/11/29 10:09:33;;;;;;;;;12.00;11.50;;;;;-147.17;100.00;50416.84;5064124;28;51957;-73
2021/11/29 10:12:23;;;;;;;;;10.00;9.75;;;;;-147.17;100.00;50432.59;5037756;28;51263;-76
2021/11/29 10:15:31;;;;;;;;;14.75;13.75;;;;;-147.17;100.00;50422.75;5035161;28;51009;-75
2021/11/29 10:18:13;;;;;;;;;9.25;9.00;;;;;-147.17;100.00;50395.19;5058984;28;50892;-73
2021/11/29 10:20:56;;;;;;;;;14.00;13.75;;;;;-147.17;100.00;50471.97;5055507;28;51972;-75
2021/11/29 10:23:52;;;;;;;;;13.75;13.75;;;;;-147.17;100.00;50416.84;5059313;28;51170;-74
2021/11/29 10:26:17;;;;;;;;;14.00;13.00;;;;;-147.17;100.00;50403.06;5050875;27;51233;-75
2021/11/29 10:28:45;;;;;;;;;14.50;14.50;;;;;-147.17;100.00;50434.56;5063234;27;51297;-76
2021/11/29 10:31:29;;;;;;;;;13.50;13.25;;;;;-147.17;100.00;50426.69;5057358;28;52858;-74
2021/11/29 10:34:03;;;;;;;;;15.00;14.00;;;;;-147.17;100.00;50434.56;5053674;28;51058;-76
2021/11/29 10:36:40;;;;;;;;;13.75;13.75;;;;;-147.17;100.00;50456.22;5054011;28;50832;-76
2021/11/29 10:39:21;;;;;;;;;19.50;17.50;;;;;-147.17;100.00;50450.31;5059834;28;51041;-74
2021/11/29 10:41:54;;;;;;;;;14.50;14.50;;;;;-147.17;100.00;50450.31;5073067;28;51080;-75
2021/11/29 10:44:23;;;;;;;;;13.50;12.00;;;;;-147.17;100.00;50442.44;5072127;28;51013;-73
2021/11/29 10:46:51;;;;;;;;;15.00;14.75;;;;;-147.17;100.00;50444.41;5071932;28;50892;-75
2021/11/29 10:49:19;;;;;;;;;15.25;14.00;;;;;-147.17;100.00;50414.88;5073598;28;51184;-73
2021/11/29 10:51:48;;;;;;;;;14.50;14.25;;;;;-147.17;100.00;50420.78;5064725;28;53862;-75
2021/11/29 10:54:16;;;;;;;;;14.25;13.25;;;;;-147.17;100.00;50460.16;5064095;28;51249;-74
2021/11/29 10:56:43;;;;;;;;;16.00;13.50;;;;;-147.17;100.00;50446.38;5062767;28;51081;-74
2021/11/29 10:59:12;;;;;;;;;14.25;12.00;;;;;-147.17;100.00;50422.75;5071138;28;51127;-76
2021/11/29 11:01:53;;;;;;;;;12.50;11.25;;;;;-147.17;100.00;50414.88;5068354;27;51191;-75
2021/11/29 11:04:34;;;;;;;;;15.00;14.00;;;;;-147.17;100.00;50456.22;5065855;28;51143;-74